createdAt,value
2019-02-10T00:00:01.429Z,1.70
2019-02-10T00:02:27.693Z,1.80
2019-02-10T00:04:54.333Z,1.73
2019-02-10T00:07:20.958Z,1.50
2019-02-10T00:09:47.629Z,1.40
2019-02-10T00:12:13.885Z,1.43
2019-02-10T00:14:41.462Z,1.30
2019-02-10T00:17:08.081Z,1.50
2019-02-10T00:19:34.746Z,1.33
2019-02-10T00:22:01.402Z,1.40
2019-02-10T00:24:28.053Z,0.90
2019-02-10T00:26:54.720Z,1.13
2019-02-10T00:29:21.490Z,1.20
2019-02-10T00:31:48.578Z,1.43
2019-02-10T00:34:15.243Z,1.27
2019-02-10T00:36:41.562Z,1.43
2019-02-10T00:39:10.851Z,1.00
2019-02-10T00:41:37.643Z,1.20
2019-02-10T00:44:04.274Z,1.33
2019-02-10T00:46:31.216Z,1.30
2019-02-10T00:48:59.046Z,1.40
2019-02-10T00:51:25.843Z,1.50
2019-02-10T00:59:47.177Z,1.10
2019-02-10T01:02:13.813Z,1.03
2019-02-10T01:04:40.486Z,1.40
2019-02-10T01:07:06.867Z,1.30
2019-02-10T01:09:33.865Z,1.33
2019-02-10T01:12:00.705Z,1.27
2019-02-10T01:14:27.082Z,0.90
2019-02-10T01:16:53.538Z,1.37
2019-02-10T01:19:19.910Z,0.80
2019-02-10T01:21:46.599Z,1.00
2019-02-10T01:24:13.217Z,1.07
2019-02-10T01:26:39.970Z,1.00
2019-02-10T01:29:06.706Z,1.03
2019-02-10T01:31:33.041Z,1.10
2019-02-10T01:33:59.734Z,0.77
2019-02-10T01:36:26.489Z,1.13
2019-02-10T01:38:53.949Z,1.00
2019-02-10T01:41:20.668Z,1.13
2019-02-10T01:43:47.000Z,1.40
2019-02-10T01:46:13.816Z,0.90
2019-02-10T01:48:40.083Z,1.30
2019-02-10T01:51:06.378Z,1.77
2019-02-10T01:53:33.044Z,0.87
2019-02-10T01:55:59.667Z,1.27
2019-02-10T01:58:26.297Z,1.23
2019-02-10T02:00:52.678Z,1.00
2019-02-10T02:03:19.043Z,0.90
2019-02-10T02:05:45.343Z,1.23
2019-02-10T02:08:11.945Z,1.00
2019-02-10T02:10:38.250Z,1.00
2019-02-10T02:13:06.777Z,1.20
2019-02-10T02:15:33.071Z,1.23
2019-02-10T02:17:59.341Z,1.57
2019-02-10T02:20:26.012Z,1.10
2019-02-10T02:22:52.636Z,1.13
2019-02-10T02:25:19.323Z,1.27
2019-02-10T02:27:45.588Z,0.93
2019-02-10T02:30:13.969Z,0.80
2019-02-10T02:32:40.590Z,0.83
2019-02-10T02:35:07.730Z,0.90
2019-02-10T02:37:35.424Z,1.07
2019-02-10T02:40:02.000Z,0.93
2019-02-10T02:42:28.294Z,1.10
2019-02-10T02:44:54.976Z,0.87
2019-02-10T02:47:21.601Z,0.90
2019-02-10T02:49:47.882Z,0.93
2019-02-10T02:52:14.183Z,0.90
2019-02-10T02:54:40.486Z,1.20
2019-02-10T02:57:06.754Z,0.70
2019-02-10T02:59:33.398Z,0.73
2019-02-10T03:02:00.013Z,0.87
2019-02-10T03:04:26.666Z,0.80
2019-02-10T03:06:53.021Z,0.63
2019-02-10T03:09:19.953Z,0.50
2019-02-10T03:11:46.207Z,0.67
2019-02-10T03:14:12.829Z,0.97
2019-02-10T03:16:39.105Z,0.90
2019-02-10T03:19:05.730Z,1.03
2019-02-10T03:21:32.466Z,1.00
2019-02-10T03:23:58.732Z,0.67
2019-02-10T03:26:25.025Z,0.90
2019-02-10T03:28:51.323Z,1.23
2019-02-10T03:31:17.612Z,1.00
2019-02-10T03:33:44.247Z,1.00
2019-02-10T03:36:10.905Z,0.87
2019-02-10T03:38:37.565Z,0.90
2019-02-10T03:41:03.898Z,0.80
2019-02-10T03:43:30.191Z,1.00
2019-02-10T03:45:56.814Z,0.80
2019-02-10T03:48:23.214Z,0.80
2019-02-10T03:50:49.481Z,0.80
2019-02-10T03:53:16.126Z,1.33
2019-02-10T03:55:42.775Z,0.80
2019-02-10T03:58:09.064Z,0.87
2019-02-10T04:00:35.795Z,0.73
2019-02-10T04:03:02.112Z,0.87
2019-02-10T04:05:28.374Z,1.23
2019-02-10T04:07:55.022Z,0.80
2019-02-10T04:10:21.692Z,1.00
2019-02-10T04:12:48.317Z,0.70
2019-02-10T04:15:14.603Z,0.70
2019-02-10T04:17:40.884Z,0.73
2019-02-10T04:20:07.675Z,0.80
2019-02-10T04:22:33.934Z,0.93
2019-02-10T04:25:00.350Z,0.80
2019-02-10T04:27:26.975Z,0.83
2019-02-10T04:29:53.634Z,0.90
2019-02-10T04:32:19.897Z,0.70
2019-02-10T04:34:46.191Z,0.70
2019-02-10T04:37:12.573Z,0.87
2019-02-10T04:39:39.232Z,0.80
2019-02-10T04:42:05.483Z,0.70
2019-02-10T04:44:32.150Z,0.70
2019-02-10T04:46:59.062Z,1.03
2019-02-10T04:49:25.697Z,0.70
2019-02-10T04:51:51.972Z,0.60
2019-02-10T04:54:18.261Z,0.70
2019-02-10T04:56:44.552Z,0.77
2019-02-10T04:59:11.180Z,0.63
2019-02-10T05:01:37.842Z,0.50
2019-02-10T05:04:04.477Z,0.40
2019-02-10T05:06:31.122Z,0.67
2019-02-10T05:08:57.380Z,0.50
2019-02-10T05:11:23.672Z,0.50
2019-02-10T05:13:49.958Z,0.53
2019-02-10T05:16:16.223Z,0.50
2019-02-10T05:18:42.869Z,0.70
2019-02-10T05:21:09.485Z,0.77
2019-02-10T05:23:36.132Z,0.60
2019-02-10T05:26:02.790Z,0.57
2019-02-10T05:28:29.467Z,0.50
2019-02-10T05:30:55.734Z,0.30
2019-02-10T05:33:23.015Z,0.57
2019-02-10T05:35:49.321Z,0.50
2019-02-10T05:38:15.607Z,0.70
2019-02-10T05:40:42.245Z,0.60
2019-02-10T05:43:10.162Z,0.60
2019-02-10T05:45:36.838Z,0.63
2019-02-10T05:48:03.325Z,0.70
2019-02-10T05:50:29.939Z,0.60
2019-02-10T05:52:56.578Z,0.50
2019-02-10T05:55:23.204Z,0.80
2019-02-10T05:57:49.558Z,0.60
2019-02-10T06:00:15.791Z,0.50
2019-02-10T06:02:42.434Z,0.60
2019-02-10T06:05:10.866Z,0.60
2019-02-10T06:07:37.514Z,0.50
2019-02-10T06:10:05.221Z,0.60
2019-02-10T06:12:31.887Z,0.43
2019-02-10T06:14:58.617Z,0.60
2019-02-10T06:17:25.270Z,0.80
2019-02-10T06:19:51.545Z,0.50
2019-02-10T06:22:17.811Z,0.60
2019-02-10T06:24:44.102Z,0.60
2019-02-10T06:27:10.369Z,0.90
2019-02-10T06:29:38.034Z,0.60
2019-02-10T06:32:04.324Z,0.60
2019-02-10T06:34:30.978Z,0.70
2019-02-10T06:36:57.601Z,0.63
2019-02-10T06:39:24.303Z,0.50
2019-02-10T06:41:50.583Z,0.40
2019-02-10T06:44:16.854Z,0.67
2019-02-10T06:46:43.467Z,0.63
2019-02-10T06:49:10.081Z,0.60
2019-02-10T06:51:36.736Z,0.60
2019-02-10T06:54:03.363Z,0.70
2019-02-10T06:56:30.019Z,0.60
2019-02-10T06:58:56.660Z,0.57
2019-02-10T07:01:24.858Z,0.87
2019-02-10T07:03:54.489Z,0.60
2019-02-10T07:06:20.810Z,0.57
2019-02-10T07:08:47.449Z,0.60
2019-02-10T07:11:15.034Z,0.47
2019-02-10T07:13:43.586Z,0.60
2019-02-10T07:16:33.182Z,0.50
2019-02-10T07:19:19.262Z,0.60
2019-02-10T07:21:46.402Z,0.60
2019-02-10T07:44:11.465Z,0.57
2019-02-10T07:46:45.922Z,0.40
2019-02-10T07:49:28.773Z,0.70
2019-02-10T08:04:28.727Z,0.40
2019-02-10T08:07:10.786Z,0.37
2019-02-10T08:09:49.805Z,0.50
2019-02-10T08:12:28.989Z,0.33
2019-02-10T08:14:57.590Z,0.60
2019-02-10T08:17:29.137Z,0.50
2019-02-10T08:20:12.649Z,0.50
2019-02-10T08:22:57.617Z,0.70
2019-02-10T08:25:29.113Z,0.60
2019-02-10T08:28:07.501Z,0.47
2019-02-10T08:30:46.486Z,0.50
2019-02-10T08:33:31.458Z,0.70
2019-02-10T08:36:08.822Z,0.63
2019-02-10T08:38:40.390Z,0.47
2019-02-10T08:41:11.854Z,0.57
2019-02-10T08:44:03.318Z,0.50
2019-02-10T08:46:36.202Z,0.57
2019-02-10T08:49:25.673Z,0.70
2019-02-10T08:51:54.229Z,0.40
2019-02-10T08:54:20.768Z,0.50
2019-02-10T08:56:47.074Z,0.60
2019-02-10T08:59:13.700Z,0.70
2019-02-10T09:01:39.966Z,0.50
2019-02-10T09:04:06.601Z,0.50
2019-02-10T09:06:33.233Z,0.60
2019-02-10T09:09:02.717Z,0.60
2019-02-10T09:11:28.706Z,0.60
2019-02-10T09:13:55.356Z,0.70
2019-02-10T09:16:21.989Z,0.70
2019-02-10T09:18:48.905Z,0.60
2019-02-10T09:21:15.535Z,0.60
2019-02-10T09:23:41.825Z,0.67
2019-02-10T09:26:08.132Z,0.50
2019-02-10T09:28:34.430Z,0.70
2019-02-10T09:31:00.747Z,0.50
2019-02-10T09:33:27.487Z,0.60
2019-02-10T09:35:53.720Z,0.50
2019-02-10T09:38:20.324Z,0.77
2019-02-10T09:40:48.861Z,0.60
2019-02-10T09:43:15.136Z,0.70
2019-02-10T09:45:41.403Z,0.70
2019-02-10T09:48:08.026Z,0.80
2019-02-10T09:50:34.696Z,0.60
2019-02-10T09:53:00.985Z,0.70
2019-02-10T09:55:27.641Z,0.77
2019-02-10T09:57:53.932Z,0.80
2019-02-10T10:00:20.581Z,0.80
2019-02-10T10:02:47.477Z,0.73
2019-02-10T10:05:14.173Z,0.60
2019-02-10T10:07:40.428Z,1.20
2019-02-10T10:10:10.900Z,0.63
2019-02-10T10:12:39.431Z,0.97
2019-02-10T10:15:09.516Z,0.90
2019-02-10T10:17:36.122Z,0.90
2019-02-10T10:20:04.254Z,1.20
2019-02-10T10:22:30.899Z,0.93
2019-02-10T10:24:57.544Z,1.00
2019-02-10T10:27:23.857Z,0.80
2019-02-10T10:29:50.162Z,0.77
2019-02-10T10:32:16.907Z,0.80
2019-02-10T10:34:43.552Z,0.60
2019-02-10T10:37:10.203Z,0.63
2019-02-10T10:39:37.429Z,0.70
2019-02-10T10:42:04.112Z,0.80
2019-02-10T10:44:30.729Z,0.60
2019-02-10T10:46:56.999Z,1.00
2019-02-10T11:07:54.146Z,0.80
2019-02-10T11:10:20.522Z,1.00
2019-02-10T11:12:47.218Z,0.93
2019-02-10T11:15:14.467Z,1.00
2019-02-10T11:17:40.855Z,0.73
2019-02-10T11:20:08.713Z,0.80
2019-02-10T11:22:34.984Z,0.80
2019-02-10T11:25:01.750Z,0.57
2019-02-10T11:27:28.009Z,0.87
2019-02-10T11:29:54.297Z,0.60
2019-02-10T11:32:21.031Z,0.80
2019-02-10T11:34:47.367Z,0.90
2019-02-10T11:37:13.985Z,0.90
2019-02-10T11:39:43.928Z,0.90
2019-02-10T11:42:11.216Z,0.87
2019-02-10T11:44:37.871Z,0.87
2019-02-10T11:47:04.549Z,0.90
2019-02-10T11:49:31.493Z,0.60
2019-02-10T11:51:57.823Z,0.90
2019-02-10T11:54:25.397Z,0.90
2019-02-10T11:56:52.069Z,0.70
2019-02-10T11:59:18.769Z,0.93
2019-02-10T12:01:45.422Z,0.67
2019-02-10T12:04:11.679Z,0.73
2019-02-10T12:06:37.986Z,0.63
2019-02-10T12:09:04.871Z,0.80
2019-02-10T12:11:32.313Z,0.67
2019-02-10T12:13:58.962Z,0.80
2019-02-10T12:16:25.634Z,0.60
2019-02-10T12:18:51.962Z,0.60
2019-02-10T12:21:18.633Z,0.90
2019-02-10T12:23:45.305Z,0.70
2019-02-10T12:26:11.958Z,0.90
2019-02-10T12:28:38.606Z,0.70
2019-02-10T12:31:04.886Z,0.80
2019-02-10T12:33:31.522Z,0.87
2019-02-10T12:35:58.620Z,0.80
2019-02-10T12:38:25.348Z,0.60
2019-02-10T12:40:52.037Z,0.60
2019-02-10T12:43:18.607Z,0.87
2019-02-10T12:45:45.221Z,0.70
2019-02-10T12:48:11.868Z,0.70
2019-02-10T12:50:38.149Z,1.10
2019-02-10T12:53:04.445Z,0.57
2019-02-10T12:55:30.725Z,0.70
2019-02-10T12:57:58.571Z,0.90
2019-02-10T13:00:24.963Z,0.90
2019-02-10T13:02:51.598Z,0.80
2019-02-10T13:05:18.239Z,0.70
2019-02-10T13:07:44.982Z,0.60
2019-02-10T13:10:17.484Z,0.67
2019-02-10T13:12:43.046Z,0.70
2019-02-10T13:15:10.083Z,0.70
2019-02-10T13:17:36.817Z,0.60
2019-02-10T13:20:06.555Z,0.57
2019-02-10T13:22:32.871Z,0.60
2019-02-10T13:24:59.834Z,0.60
2019-02-10T13:27:26.504Z,0.60
2019-02-10T13:29:52.806Z,0.80
2019-02-10T13:32:19.441Z,0.80
2019-02-10T13:34:46.069Z,0.80
2019-02-10T13:37:12.701Z,0.70
2019-02-10T13:39:39.376Z,0.80
2019-02-10T13:42:06.002Z,0.60
2019-02-10T13:44:32.275Z,0.70
2019-02-10T13:46:58.906Z,0.70
2019-02-10T13:49:25.554Z,0.73
2019-02-10T13:51:52.231Z,0.63
2019-02-10T13:54:19.442Z,0.70
2019-02-10T13:56:46.346Z,0.80
2019-02-10T13:59:12.738Z,1.10
2019-02-10T14:01:40.537Z,0.80
2019-02-10T14:04:07.173Z,0.90
2019-02-10T14:06:33.850Z,0.97
2019-02-10T14:09:03.862Z,0.70
2019-02-10T14:11:30.506Z,1.00
2019-02-10T14:13:57.138Z,0.80
2019-02-10T14:16:23.776Z,1.00
2019-02-10T14:18:50.423Z,1.00
2019-02-10T14:21:16.692Z,1.23
2019-02-10T14:23:45.253Z,0.87
2019-02-10T14:26:11.870Z,0.87
2019-02-10T14:28:38.517Z,0.60
2019-02-10T14:31:04.790Z,0.70
2019-02-10T14:33:38.753Z,0.83
2019-02-10T14:35:59.925Z,0.60
2019-02-10T14:38:26.597Z,0.90
2019-02-10T14:40:53.335Z,0.90
2019-02-10T14:43:19.865Z,0.83
2019-02-10T14:45:46.161Z,0.57
2019-02-10T14:48:12.793Z,1.00
2019-02-10T14:50:39.326Z,0.80
2019-02-10T14:53:05.597Z,0.80
2019-02-10T14:55:33.569Z,0.70
2019-02-10T14:58:00.667Z,0.53
2019-02-10T15:00:26.986Z,0.90
2019-02-10T15:02:53.251Z,0.70
2019-02-10T15:05:19.879Z,0.67
2019-02-10T15:07:49.684Z,0.60
2019-02-10T15:10:17.829Z,0.60
2019-02-10T15:12:44.243Z,0.50
2019-02-10T15:15:10.879Z,0.60
2019-02-10T15:17:38.285Z,0.80
2019-02-10T15:20:06.443Z,0.50
2019-02-10T15:22:32.850Z,0.83
2019-02-10T15:24:59.464Z,0.90
2019-02-10T15:27:26.113Z,0.63
2019-02-10T15:29:53.182Z,0.60
2019-02-10T15:32:20.117Z,0.43
2019-02-10T15:34:46.391Z,0.60
2019-02-10T15:37:16.144Z,0.50
2019-02-10T15:39:42.831Z,0.80
2019-02-10T15:42:09.772Z,0.83
2019-02-10T15:44:36.438Z,0.60
2019-02-10T15:47:02.818Z,0.73
2019-02-10T15:49:29.749Z,0.63
2019-02-10T15:51:56.005Z,0.40
2019-02-10T15:54:22.662Z,0.50
2019-02-10T15:56:49.333Z,0.43
2019-02-10T15:59:15.977Z,0.50
2019-02-10T16:01:42.618Z,0.50
2019-02-10T16:04:09.231Z,0.60
2019-02-10T16:06:35.851Z,0.50
2019-02-10T16:09:04.041Z,0.70
2019-02-10T16:11:30.370Z,0.63
2019-02-10T16:13:57.785Z,0.63
2019-02-10T16:16:24.445Z,0.40
2019-02-10T16:18:51.267Z,0.50
2019-02-10T16:21:17.926Z,0.40
2019-02-10T16:23:44.203Z,0.57
2019-02-10T16:26:10.869Z,0.40
2019-02-10T16:28:38.003Z,0.50
2019-02-10T16:31:04.655Z,0.40
2019-02-10T16:33:31.324Z,0.60
2019-02-10T16:35:57.961Z,0.63
2019-02-10T16:38:24.237Z,0.50
2019-02-10T16:40:50.541Z,0.70
2019-02-10T16:43:17.149Z,0.90
2019-02-10T16:45:43.410Z,2.23
2019-02-10T16:48:10.060Z,66.53
2019-02-10T16:50:36.672Z,42.87
2019-02-10T16:53:03.330Z,28.80
2019-02-10T16:55:29.954Z,13.33
2019-02-10T16:57:56.614Z,7.43
2019-02-10T17:00:22.902Z,4.07
2019-02-10T17:02:49.566Z,1.77
2019-02-10T17:05:16.190Z,1.03
2019-02-10T17:07:43.067Z,0.60
2019-02-10T17:10:16.494Z,0.90
2019-02-10T17:30:36.650Z,0.40
2019-02-10T17:33:03.358Z,0.30
2019-02-10T17:35:30.161Z,0.40
2019-02-10T17:37:56.586Z,0.30
2019-02-10T17:40:28.147Z,0.43
2019-02-10T17:42:54.825Z,0.30
2019-02-10T17:45:21.630Z,0.47
2019-02-10T17:47:47.938Z,0.27
2019-02-10T17:50:16.382Z,0.97
2019-02-10T17:52:43.002Z,0.70
2019-02-10T17:55:09.685Z,0.43
2019-02-10T17:57:36.385Z,0.40
2019-02-10T18:00:05.546Z,0.30
2019-02-10T18:02:32.510Z,0.30
2019-02-10T18:24:01.138Z,0.30
2019-02-10T18:26:32.405Z,0.27
2019-02-10T18:29:12.769Z,0.30
2019-02-10T18:31:41.267Z,0.70
2019-02-10T18:34:26.091Z,0.30
2019-02-10T18:36:57.492Z,0.30
2019-02-10T18:39:28.914Z,0.30
2019-02-10T18:41:57.511Z,0.20
2019-02-10T19:19:57.298Z,0.40
2019-02-10T19:22:42.103Z,0.40
2019-02-10T19:25:10.617Z,0.27
2019-02-10T19:27:39.174Z,0.33
2019-02-10T19:30:13.897Z,0.20
2019-02-10T19:32:45.285Z,0.40
2019-02-10T19:35:25.238Z,0.30
2019-02-10T19:37:56.442Z,0.80
2019-02-10T19:40:41.501Z,0.40
2019-02-10T19:43:16.035Z,0.20
2019-02-10T19:45:44.269Z,0.30
2019-02-10T19:48:12.833Z,0.40
2019-02-10T19:50:41.040Z,0.40
2019-02-10T19:53:15.434Z,0.30
2019-02-10T19:55:46.350Z,0.30
2019-02-10T19:58:31.263Z,0.70
2019-02-10T20:01:02.739Z,0.50
2019-02-10T20:03:48.844Z,0.30
2019-02-10T20:06:25.901Z,0.30
2019-02-10T20:08:54.194Z,0.30
2019-02-10T20:11:32.094Z,0.30
2019-02-10T20:14:03.077Z,0.43
2019-02-10T20:16:31.593Z,0.17
2019-02-10T20:19:05.774Z,0.40
2019-02-10T20:21:50.490Z,0.40
2019-02-10T20:24:31.141Z,0.20
2019-02-10T20:55:02.369Z,0.37
2019-02-10T20:57:33.528Z,0.30
2019-02-10T21:00:04.650Z,0.20
2019-02-10T21:02:32.930Z,0.40
2019-02-10T21:05:01.195Z,0.20
2019-02-10T21:07:41.569Z,0.20
2019-02-10T21:10:12.889Z,0.30
2019-02-10T21:12:47.589Z,0.30
2019-02-10T21:15:24.571Z,0.30
2019-02-10T21:17:56.001Z,0.30
2019-02-10T21:20:40.793Z,0.50
2019-02-10T21:23:17.922Z,0.30
2019-02-10T21:25:52.636Z,0.23
2019-02-10T21:28:19.517Z,0.40
2019-02-10T21:30:53.429Z,0.30
2019-02-10T21:33:31.174Z,0.20
2019-02-10T21:36:02.299Z,0.23
2019-02-10T21:38:45.418Z,0.23
2019-02-10T21:41:22.386Z,0.27
2019-02-10T21:43:53.782Z,0.20
2019-02-10T21:46:24.981Z,0.20
2019-02-10T21:48:53.589Z,0.20
2019-02-10T21:51:20.262Z,0.20
2019-02-10T22:50:05.357Z,0.20
2019-02-10T22:52:32.021Z,0.30
2019-02-10T22:54:58.712Z,0.20
2019-02-10T22:57:25.385Z,0.20
2019-02-10T22:59:52.055Z,0.13
2019-02-10T23:02:21.010Z,0.27
2019-02-10T23:04:47.673Z,0.10
2019-02-10T23:07:14.792Z,0.30
2019-02-10T23:09:41.493Z,0.20
2019-02-10T23:12:08.525Z,0.23
2019-02-10T23:14:35.315Z,0.20
2019-02-10T23:17:01.629Z,0.30
2019-02-10T23:19:28.183Z,0.20
2019-02-10T23:21:54.860Z,0.20
2019-02-10T23:24:21.777Z,0.20
2019-02-10T23:26:50.058Z,0.20
2019-02-10T23:29:16.404Z,0.20
2019-02-10T23:31:42.729Z,0.30
2019-02-10T23:34:09.402Z,0.30
2019-02-10T23:36:36.081Z,0.10
2019-02-10T23:39:04.174Z,0.20
2019-02-10T23:41:30.850Z,0.17
2019-02-10T23:43:57.475Z,0.17
2019-02-10T23:46:24.150Z,0.30
2019-02-10T23:48:50.847Z,0.20
2019-02-10T23:51:17.632Z,0.10
2019-02-10T23:53:45.307Z,0.20
2019-02-10T23:56:11.616Z,0.20
2019-02-10T23:58:38.314Z,0.10
